This is the latest recevied weather packets stored in our database for station/object HI6LT. If no packets are shown the sender has not sent any weather packets the latest 10 day(s).
| Time | Temp. | Humidity | Pressure | Rain* | Wind** | Luminosity | Snow |
|---|---|---|---|---|---|---|---|
| 1777497984 | 18.33° C | 87% | 1031.8 hPa | 0 mm | - | - | - |
| 1777497101 | 17.22° C | 93% | 1031.5 hPa | 0 mm | - | - | - |
| 1777496442 | 19.44° C | 91% | 1032 hPa | 0 mm | - | - | - |
| 1777495681 | 18.89° C | 90% | 1031.4 hPa | 0 mm | - | - | - |
| 1777495300 | 18.89° C | 89% | 1031.5 hPa | 0 mm | - | - | - |
| 1777494240 | 18.89° C | 90% | 1032.5 hPa | 0 mm | - | - | - |
| 1777493499 | 18.33° C | 87% | 1031.8 hPa | 0 mm | - | - | - |
| 1777493110 | 21.11° C | 83% | 1033 hPa | 0 mm | - | - | - |
| 1777492978 | 19.44° C | 86% | 1031.9 hPa | 0 mm | - | - | - |
| 1777491697 | 19.44° C | 91% | 1032 hPa | 0 mm | - | - | - |
| 1777490275 | 20° C | 88% | 1032.6 hPa | 0 mm | - | - | - |
| 1777489905 | 20° C | 86% | 1032.5 hPa | 0 mm | - | - | - |
| 1777488985 | 20° C | 85% | 1033.6 hPa | 0 mm | - | - | - |
| 1777488104 | 18.89° C | 90% | 1032.5 hPa | 0 mm | - | - | - |
| 1777487715 | 20° C | 85% | 1033.6 hPa | 0 mm | - | - | - |
| 1777487573 | 20° C | 86% | 1032.5 hPa | 0 mm | - | - | - |
| 1777486303 | 21.11° C | 83% | 1033 hPa | 0 mm | - | - | - |
| 1777486032 | 21.67° C | 77% | 1034.6 hPa | 0 mm | - | - | - |
| 1777484880 | 20° C | 86% | 1033.2 hPa | 0 mm | - | - | - |
| 1777484500 | 20° C | 85% | 1033.6 hPa | 0 mm | - | - | - |
| 1777484112 | 20° C | 87% | 1034.4 hPa | 0 mm | - | - | - |
| 1777482700 | 20° C | 85% | 1033.6 hPa | 0 mm | - | - | - |
| 1777482180 | 20.56° C | 80% | 1033.7 hPa | 0 mm | - | - | - |
| 1777480898 | 21.67° C | 77% | 1034.6 hPa | 0 mm | - | - | - |
| 1777480510 | 19.44° C | 85% | 1034.9 hPa | 0 mm | - | - | - |
* Rain latest hour (hover to see other rain measurements)
** Current wind speed in m/s (hover to see current wind gust speed)